Time;durP1;ratioP1;P1;durP2;ratioP2;P2;SDS_P1;SDS_P2;PMS_P1;PMS_P2;Temp;Humidity;BMP_temperature;BMP_pressure;BME280_temperature;BME280_humidity;BME280_pressure;Samples;Min_cycle;Max_cycle;Signal;HPM_P1;HPM_P2
2022/02/28 00:02:21;;;;;;;22.65;11.23;;;4.70;90.30;;;;;;4990772;28;20361;-70
2022/02/28 00:04:47;;;;;;;29.65;12.07;;;4.70;90.40;;;;;;4990787;28;20157;-71
2022/02/28 00:07:12;;;;;;;20.20;9.85;;;4.80;90.30;;;;;;4990613;28;20692;-71
2022/02/28 00:09:38;;;;;;;24.58;11.23;;;4.70;90.40;;;;;;4990547;28;20045;-70
2022/02/28 00:12:04;;;;;;;27.67;11.18;;;4.70;90.30;;;;;;4989864;28;20026;-71
2022/02/28 00:14:30;;;;;;;22.60;10.63;;;4.60;90.40;;;;;;4989723;28;20037;-69
2022/02/28 00:16:55;;;;;;;27.67;11.52;;;4.60;90.60;;;;;;4994379;28;20034;-70
2022/02/28 00:19:21;;;;;;;24.40;10.73;;;4.60;90.70;;;;;;4994384;28;20026;-71
2022/02/28 00:21:46;;;;;;;21.35;10.38;;;4.60;90.80;;;;;;4994491;28;20061;-71
2022/02/28 00:24:13;;;;;;;28.73;11.05;;;4.40;90.90;;;;;;4994694;28;20535;-72
2022/02/28 00:26:38;;;;;;;24.67;11.15;;;4.50;90.90;;;;;;4994149;28;20033;-70
2022/02/28 00:29:04;;;;;;;25.80;11.07;;;4.40;90.80;;;;;;4994275;28;20105;-70
2022/02/28 00:31:29;;;;;;;21.15;11.13;;;4.40;91.00;;;;;;4994167;28;20026;-70
2022/02/28 00:33:55;;;;;;;26.65;11.07;;;4.50;90.80;;;;;;4993924;28;20026;-70
2022/02/28 00:36:20;;;;;;;22.35;11.15;;;4.50;91.10;;;;;;4994347;28;20046;-70
2022/02/28 00:38:46;;;;;;;26.83;11.95;;;4.50;91.00;;;;;;4994160;28;20410;-70
2022/02/28 00:41:14;;;;;;;22.55;10.90;;;4.40;90.80;;;;;;4993895;28;20040;-72
2022/02/28 00:43:39;;;;;;;24.15;11.85;;;4.40;91.00;;;;;;4993941;28;20041;-70
2022/02/28 00:46:05;;;;;;;23.50;10.85;;;4.40;91.10;;;;;;4976664;28;20023;-69
2022/02/28 00:48:31;;;;;;;21.40;11.32;;;4.40;91.10;;;;;;4994366;28;20354;-70
2022/02/28 00:50:57;;;;;;;22.02;11.20;;;4.30;91.30;;;;;;4993741;28;20488;-71
2022/02/28 00:53:22;;;;;;;21.52;11.35;;;4.30;91.20;;;;;;4993755;28;20031;-70
2022/02/28 00:55:48;;;;;;;27.20;11.77;;;4.40;91.30;;;;;;4993765;28;20041;-70
2022/02/28 00:58:13;;;;;;;24.92;11.57;;;4.40;91.40;;;;;;4993686;28;20034;-68
2022/02/28 01:00:39;;;;;;;22.73;10.70;;;4.30;91.40;;;;;;4993670;28;20026;-70
2022/02/28 01:03:05;;;;;;;32.72;11.90;;;4.40;91.30;;;;;;4994116;28;20027;-70
2022/02/28 01:05:31;;;;;;;23.35;11.18;;;4.40;91.20;;;;;;4993366;28;20121;-69
2022/02/28 01:07:57;;;;;;;25.60;11.55;;;4.40;91.30;;;;;;4993588;28;20467;-71
2022/02/28 01:10:23;;;;;;;22.85;10.95;;;4.40;91.40;;;;;;4993487;28;20035;-71
2022/02/28 01:12:51;;;;;;;25.55;11.32;;;4.30;91.30;;;;;;4993505;28;20027;-71
2022/02/28 01:15:19;;;;;;;21.27;10.63;;;4.20;91.60;;;;;;4993804;28;20045;-70
2022/02/28 01:17:44;;;;;;;;;;;4.30;91.50;;;;;;4976443;28;20164;-72
2022/02/28 01:20:12;;;;;;;23.80;11.43;;;4.30;91.60;;;;;;4993456;28;19996;-72
2022/02/28 01:22:39;;;;;;;31.30;12.45;;;4.30;91.70;;;;;;4976177;28;20368;-70
2022/02/28 01:25:06;;;;;;;23.38;11.10;;;4.30;91.70;;;;;;4992001;28;20376;-70
2022/02/28 01:27:31;;;;;;;23.83;10.63;;;4.20;91.70;;;;;;4976638;28;20313;-70
2022/02/28 01:29:57;;;;;;;27.38;11.32;;;4.20;91.80;;;;;;4993325;28;20041;-70
2022/02/28 01:32:23;;;;;;;21.55;10.55;;;4.20;91.90;;;;;;4975736;28;20105;-70
2022/02/28 01:34:49;;;;;;;26.08;11.35;;;4.20;91.90;;;;;;4993051;28;20057;-70
2022/02/28 01:37:15;;;;;;;27.55;11.20;;;4.10;92.00;;;;;;4992943;28;20042;-71
2022/02/28 01:39:44;;;;;;;28.92;11.52;;;4.10;92.10;;;;;;4993010;28;20104;-70
2022/02/28 01:42:13;;;;;;;27.80;10.95;;;4.10;92.20;;;;;;4993812;28;20121;-71
2022/02/28 01:44:39;;;;;;;22.55;10.90;;;4.00;92.20;;;;;;4993030;28;20037;-71
2022/02/28 01:47:06;;;;;;;23.23;11.63;;;4.10;92.30;;;;;;4993015;28;20026;-71
2022/02/28 01:49:32;;;;;;;22.67;10.98;;;4.10;92.10;;;;;;4992935;28;20030;-70
2022/02/28 01:51:58;;;;;;;25.02;11.88;;;4.10;92.20;;;;;;4992794;28;20376;-70
2022/02/28 01:54:25;;;;;;;30.90;11.32;;;4.10;92.40;;;;;;4993243;28;20023;-70
2022/02/28 01:56:51;;;;;;;29.38;11.93;;;4.00;92.40;;;;;;4992853;28;20031;-70
2022/02/28 01:59:16;;;;;;;22.27;10.95;;;4.10;92.40;;;;;;4992690;28;20819;-71
2022/02/28 02:01:42;;;;;;;27.70;11.93;;;4.00;92.30;;;;;;4992594;28;20125;-71
2022/02/28 02:04:07;;;;;;;26.92;12.38;;;4.00;92.40;;;;;;4992575;28;20420;-71
2022/02/28 02:06:35;;;;;;;24.98;11.52;;;3.90;92.60;;;;;;4992933;28;20034;-72
2022/02/28 02:09:02;;;;;;;30.90;12.43;;;3.90;92.70;;;;;;4991416;28;20042;-71
2022/02/28 02:11:27;;;;;;;30.67;12.73;;;3.90;92.70;;;;;;4992605;28;20408;-71
2022/02/28 02:13:54;;;;;;;26.17;11.82;;;4.00;92.40;;;;;;4992371;28;20027;-70
2022/02/28 02:16:19;;;;;;;25.88;12.40;;;3.90;92.60;;;;;;4992431;28;20038;-70
2022/02/28 02:18:45;;;;;;;24.75;11.10;;;3.90;92.70;;;;;;4992247;28;20026;-71
2022/02/28 02:21:12;;;;;;;22.95;10.50;;;3.80;92.60;;;;;;4992614;28;20027;-70
2022/02/28 02:23:38;;;;;;;24.40;11.70;;;3.90;92.60;;;;;;4992131;28;20392;-71
2022/02/28 02:26:09;;;;;;;22.42;11.18;;;3.90;92.70;;;;;;4992139;28;20038;-71
2022/02/28 02:28:36;;;;;;;25.67;11.80;;;3.80;92.80;;;;;;4992219;28;20612;-70
2022/02/28 02:31:04;;;;;;;27.97;10.87;;;3.80;92.80;;;;;;4992364;28;20744;-70
2022/02/28 02:33:31;;;;;;;22.27;10.98;;;3.70;92.80;;;;;;4992990;28;20058;-71
2022/02/28 02:36:00;;;;;;;22.15;11.43;;;3.70;92.90;;;;;;4992496;28;20490;-70
2022/02/28 02:38:27;;;;;;;21.88;11.50;;;3.60;93.00;;;;;;5012877;28;20029;-70
2022/02/28 02:40:53;;;;;;;23.27;10.88;;;3.60;93.10;;;;;;5031008;28;20478;-70
2022/02/28 02:43:19;;;;;;;21.20;11.10;;;3.60;93.10;;;;;;5031177;28;20459;-69
2022/02/28 02:45:45;;;;;;;23.75;10.18;;;3.60;93.10;;;;;;5031113;28;20048;-70
2022/02/28 02:48:11;;;;;;;26.02;12.52;;;3.50;93.20;;;;;;5031389;28;20040;-71
2022/02/28 02:50:37;;;;;;;23.38;11.25;;;3.60;93.10;;;;;;5031043;28;20116;-70
2022/02/28 02:53:03;;;;;;;31.55;12.43;;;3.50;93.30;;;;;;5030841;28;20168;-70
2022/02/28 02:55:28;;;;;;;25.05;11.43;;;3.60;93.50;;;;;;5030930;28;20102;-69
2022/02/28 02:57:54;;;;;;;23.83;11.73;;;3.60;93.60;;;;;;5030802;28;20500;-70
2022/02/28 03:00:20;;;;;;;23.50;11.68;;;3.60;93.50;;;;;;5031336;28;20494;-71
2022/02/28 03:02:45;;;;;;;26.85;11.55;;;3.60;93.50;;;;;;5030794;28;20026;-72
2022/02/28 03:05:11;;;;;;;29.17;11.55;;;3.60;93.50;;;;;;5030751;28;20506;-71
2022/02/28 03:07:37;;;;;;;24.77;11.65;;;3.60;93.30;;;;;;5030652;28;20041;-70
2022/02/28 03:10:03;;;;;;;22.15;11.93;;;3.50;93.40;;;;;;5030583;28;20103;-70
2022/02/28 03:12:28;;;;;;;25.42;12.52;;;3.40;93.50;;;;;;5031008;28;20025;-70
2022/02/28 03:14:54;;;;;;;24.80;12.45;;;3.40;93.70;;;;;;5030672;28;20033;-70
2022/02/28 03:17:19;;;;;;;22.67;10.90;;;3.40;93.60;;;;;;5030639;28;20033;-71
2022/02/28 03:19:45;;;;;;;25.83;11.57;;;3.40;93.70;;;;;;5030728;28;20383;-70
2022/02/28 03:22:11;;;;;;;26.50;11.65;;;3.30;93.60;;;;;;5030805;28;20087;-70
2022/02/28 03:24:36;;;;;;;23.90;11.48;;;3.30;93.60;;;;;;5030562;28;20379;-70
2022/02/28 03:27:02;;;;;;;26.58;12.43;;;3.30;93.80;;;;;;5030990;28;20451;-71
2022/02/28 03:29:28;;;;;;;24.88;12.00;;;3.40;93.90;;;;;;5030757;28;20029;-71
2022/02/28 03:31:54;;;;;;;25.13;12.18;;;3.40;93.80;;;;;;5030433;28;20025;-71
2022/02/28 03:34:19;;;;;;;23.75;12.27;;;3.40;93.80;;;;;;5030534;28;20112;-72
2022/02/28 03:36:45;;;;;;;27.73;12.60;;;3.40;93.90;;;;;;5030029;28;20601;-71
2022/02/28 03:39:11;;;;;;;24.63;12.18;;;3.30;93.90;;;;;;5031047;28;20034;-70
2022/02/28 03:41:37;;;;;;;26.42;12.70;;;3.40;93.90;;;;;;5030800;28;20041;-70
2022/02/28 03:44:03;;;;;;;26.23;12.30;;;3.30;93.90;;;;;;5030426;28;20185;-71
2022/02/28 03:46:28;;;;;;;24.65;11.85;;;3.30;94.10;;;;;;5030571;28;20033;-71
2022/02/28 03:48:54;;;;;;;26.48;12.25;;;3.40;94.10;;;;;;5030912;28;20044;-70
2022/02/28 03:51:20;;;;;;;27.48;12.00;;;3.30;94.00;;;;;;5035079;28;20048;-71
2022/02/28 03:53:45;;;;;;;23.38;11.35;;;3.40;93.70;;;;;;5034356;28;20026;-71
2022/02/28 03:56:12;;;;;;;23.02;11.85;;;3.50;93.60;;;;;;5034333;28;20030;-70
2022/02/28 03:58:38;;;;;;;21.00;10.70;;;3.50;93.70;;;;;;5016891;28;20104;-70
2022/02/28 04:01:07;;;;;;;26.35;11.68;;;3.60;93.80;;;;;;5034342;28;20037;-70
2022/02/28 04:03:33;;;;;;;25.42;10.88;;;3.30;93.80;;;;;;5034895;28;20026;-70
2022/02/28 04:05:59;;;;;;;23.25;11.85;;;3.30;94.00;;;;;;5034440;28;20060;-71
2022/02/28 04:08:24;;;;;;;23.83;11.43;;;3.20;94.10;;;;;;5034133;28;20387;-70
2022/02/28 04:10:51;;;;;;;25.08;11.48;;;3.30;94.10;;;;;;5034289;28;20025;-71
2022/02/28 04:13:16;;;;;;;26.17;11.95;;;3.20;93.90;;;;;;5034410;28;20368;-71
2022/02/28 04:15:43;;;;;;;29.42;12.52;;;3.20;94.10;;;;;;5016542;28;20041;-71
2022/02/28 04:18:08;;;;;;;30.90;12.57;;;3.10;94.10;;;;;;5016823;28;20045;-72
2022/02/28 04:20:34;;;;;;;27.50;12.43;;;3.10;94.20;;;;;;5033827;28;20030;-71
2022/02/28 04:23:00;;;;;;;29.48;13.27;;;3.10;94.30;;;;;;5033796;28;20039;-71
2022/02/28 04:25:26;;;;;;;25.25;11.50;;;3.10;94.20;;;;;;5033635;28;20087;-72
2022/02/28 04:27:51;;;;;;;27.63;13.27;;;3.10;94.30;;;;;;5016298;28;20033;-71
2022/02/28 04:30:18;;;;;;;25.48;11.98;;;3.10;94.10;;;;;;5034241;28;20029;-72
2022/02/28 04:32:44;;;;;;;29.60;13.27;;;3.00;94.20;;;;;;5033584;28;20029;-72
2022/02/28 04:35:09;;;;;;;24.65;11.93;;;3.10;94.30;;;;;;5033353;28;20041;-71
2022/02/28 04:37:35;;;;;;;27.45;12.40;;;3.00;94.30;;;;;;5033537;28;20113;-70
2022/02/28 04:40:02;;;;;;;28.98;12.88;;;2.90;94.40;;;;;;5033473;28;20033;-71
2022/02/28 04:42:27;;;;;;;31.50;12.27;;;2.90;94.60;;;;;;5033724;28;20408;-70
2022/02/28 04:44:53;;;;;;;21.48;11.32;;;3.00;94.60;;;;;;5033297;28;20044;-71
2022/02/28 04:47:18;;;;;;;24.25;12.35;;;2.90;94.60;;;;;;5033249;28;20104;-70
2022/02/28 04:49:45;;;;;;;30.20;12.90;;;2.90;94.50;;;;;;5033081;28;20161;-70
2022/02/28 04:52:10;;;;;;;28.60;11.75;;;2.90;94.80;;;;;;5033168;28;20033;-71
2022/02/28 04:54:36;;;;;;;28.48;13.00;;;2.90;94.70;;;;;;5032976;28;20044;-72
2022/02/28 04:57:02;;;;;;;26.17;12.23;;;2.90;94.70;;;;;;5033533;28;20025;-71
2022/02/28 04:59:27;;;;;;;24.75;11.95;;;2.90;94.90;;;;;;5033196;28;20061;-71
2022/02/28 05:01:53;;;;;;;28.63;12.80;;;2.90;94.80;;;;;;5032323;28;20533;-71
2022/02/28 05:04:18;;;;;;;27.80;12.98;;;2.90;94.80;;;;;;5015331;28;20139;-71
2022/02/28 05:06:44;;;;;;;30.58;13.20;;;2.90;94.70;;;;;;5032854;28;20021;-71
2022/02/28 05:09:09;;;;;;;29.25;12.98;;;2.90;94.80;;;;;;5033597;28;20064;-71
2022/02/28 05:11:35;;;;;;;28.02;13.32;;;2.90;94.60;;;;;;5033120;28;20048;-72
2022/02/28 05:14:00;;;;;;;32.10;13.70;;;3.00;94.80;;;;;;5033075;28;20030;-71
2022/02/28 05:16:26;;;;;;;25.77;12.82;;;3.00;95.00;;;;;;5015134;28;20454;-71
2022/02/28 05:18:52;;;;;;;27.05;12.20;;;2.90;94.80;;;;;;5032826;28;20249;-71
2022/02/28 05:21:17;;;;;;;31.55;13.98;;;2.90;95.00;;;;;;5033067;28;20106;-72
2022/02/28 05:23:43;;;;;;;25.50;12.65;;;2.90;95.00;;;;;;5032503;28;20033;-72
2022/02/28 05:26:08;;;;;;;26.05;13.23;;;2.90;94.80;;;;;;5032707;28;20438;-72
2022/02/28 05:28:34;;;;;;;30.35;13.40;;;2.90;94.90;;;;;;5032591;28;20407;-71
2022/02/28 05:30:59;;;;;;;32.28;14.70;;;2.90;95.00;;;;;;5032539;28;20119;-71
2022/02/28 05:33:28;;;;;;;25.67;12.25;;;2.80;95.10;;;;;;5032908;28;20022;-71
2022/02/28 05:35:53;;;;;;;26.35;12.40;;;2.90;95.00;;;;;;5032285;28;20053;-70
2022/02/28 05:38:19;;;;;;;31.45;14.10;;;2.90;95.10;;;;;;5032412;28;20120;-71
2022/02/28 05:40:46;;;;;;;33.25;13.65;;;2.80;94.90;;;;;;5032491;28;20459;-71
2022/02/28 05:43:12;;;;;;;32.22;14.32;;;2.80;95.10;;;;;;5032584;28;20096;-71
2022/02/28 05:45:37;;;;;;;26.15;13.05;;;2.70;95.20;;;;;;5032139;28;20026;-71
2022/02/28 05:48:04;;;;;;;33.83;12.77;;;2.80;95.40;;;;;;5032607;28;20022;-71
2022/02/28 05:50:30;;;;;;;27.92;12.80;;;2.80;95.30;;;;;;5014601;28;20044;-71
2022/02/28 05:52:56;;;;;;;61.85;17.48;;;2.80;95.40;;;;;;5032127;28;20083;-72
2022/02/28 05:55:22;;;;;;;34.85;14.20;;;2.80;95.40;;;;;;5031981;28;20080;-71
2022/02/28 05:57:48;;;;;;;30.50;14.95;;;2.90;95.50;;;;;;5032023;28;20570;-71
2022/02/28 06:00:14;;;;;;;32.85;14.20;;;2.80;95.40;;;;;;5032590;28;20022;-73
2022/02/28 06:02:40;;;;;;;31.23;14.55;;;2.70;95.50;;;;;;5031956;28;20026;-72
2022/02/28 06:05:07;;;;;;;29.83;14.52;;;2.80;95.50;;;;;;5031762;28;20036;-71
2022/02/28 06:07:33;;;;;;;28.73;14.05;;;2.70;95.60;;;;;;5014193;28;20458;-72
2022/02/28 06:09:58;;;;;;;32.53;15.13;;;2.70;95.60;;;;;;5014368;28;20091;-72
2022/02/28 06:12:24;;;;;;;35.03;14.95;;;2.70;95.60;;;;;;5031133;28;20116;-71
2022/02/28 06:14:49;;;;;;;28.95;14.75;;;2.80;95.70;;;;;;5014221;28;20495;-72
2022/02/28 06:17:15;;;;;;;32.22;14.88;;;2.70;95.60;;;;;;5031668;28;20369;-72
2022/02/28 06:19:41;;;;;;;31.02;13.43;;;2.70;95.60;;;;;;5031717;28;20048;-71
2022/02/28 06:22:06;;;;;;;32.90;14.18;;;2.70;95.70;;;;;;5031579;28;20521;-73
2022/02/28 06:24:32;;;;;;;30.08;14.73;;;2.70;95.40;;;;;;5032221;28;20445;-71
2022/02/28 06:26:58;;;;;;;37.25;16.08;;;2.70;95.70;;;;;;5031561;28;20522;-71
2022/02/28 06:29:23;;;;;;;30.65;14.40;;;2.70;95.90;;;;;;5020843;28;20180;-71
2022/02/28 06:31:49;;;;;;;33.90;13.93;;;2.80;95.80;;;;;;4994341;28;20328;-73
2022/02/28 06:34:14;;;;;;;28.70;14.70;;;2.90;95.80;;;;;;4993882;28;20448;-72
2022/02/28 06:36:41;;;;;;;33.05;14.65;;;3.00;95.70;;;;;;5011135;28;20127;-71
2022/02/28 06:39:07;;;;;;;36.05;13.85;;;3.00;95.50;;;;;;5012100;28;20030;-72
2022/02/28 06:41:33;;;;;;;34.13;14.85;;;3.00;95.50;;;;;;5011332;28;20116;-71
2022/02/28 06:44:00;;;;;;;35.22;14.98;;;3.00;95.50;;;;;;5011228;28;20109;-72
2022/02/28 06:46:27;;;;;;;33.30;15.20;;;3.10;95.60;;;;;;5011354;28;20026;-72
2022/02/28 06:48:52;;;;;;;29.38;13.80;;;3.20;95.50;;;;;;5011638;28;20018;-71
2022/02/28 06:51:18;;;;;;;38.63;16.92;;;3.20;95.40;;;;;;5011503;28;20569;-71
2022/02/28 06:53:44;;;;;;;33.13;14.60;;;3.20;95.40;;;;;;5011226;28;20105;-72
2022/02/28 06:56:09;;;;;;;37.63;14.77;;;3.20;95.30;;;;;;5011250;28;20056;-70
2022/02/28 06:58:35;;;;;;;33.13;15.00;;;3.20;95.40;;;;;;5011197;28;20080;-70
2022/02/28 07:01:06;;;;;;;29.55;14.35;;;3.20;95.30;;;;;;4993500;28;20125;-72
2022/02/28 07:03:32;;;;;;;33.97;15.52;;;3.20;95.40;;;;;;5011400;28;20069;-74
2022/02/28 07:05:59;;;;;;;37.47;16.13;;;3.20;95.40;;;;;;5010959;28;20041;-72
2022/02/28 07:08:25;;;;;;;34.97;15.90;;;3.20;95.40;;;;;;5011011;28;20041;-75
2022/02/28 07:10:52;;;;;;;33.90;14.70;;;3.20;95.40;;;;;;4984550;28;20562;-75
2022/02/28 07:13:18;;;;;;;35.20;16.33;;;3.40;95.30;;;;;;4990978;28;20042;-71
2022/02/28 07:15:46;;;;;;;43.53;15.75;;;3.50;95.30;;;;;;4991002;28;20085;-70
2022/02/28 07:18:13;;;;;;;37.63;16.00;;;3.50;95.10;;;;;;4991680;28;20062;-72
2022/02/28 07:20:39;;;;;;;40.33;18.55;;;3.40;95.20;;;;;;4991298;28;20042;-71
2022/02/28 07:23:05;;;;;;;34.10;16.77;;;3.40;95.10;;;;;;4990828;28;20045;-71
2022/02/28 07:25:31;;;;;;;33.72;15.25;;;3.40;95.20;;;;;;4990599;28;20310;-72
2022/02/28 07:27:58;;;;;;;33.42;14.95;;;3.40;95.20;;;;;;4991160;28;20105;-70
2022/02/28 07:30:24;;;;;;;31.13;15.02;;;3.50;95.20;;;;;;4991223;28;20360;-73
2022/02/28 07:32:50;;;;;;;38.50;15.77;;;3.60;95.10;;;;;;4991647;28;20547;-73
2022/02/28 07:35:15;;;;;;;33.63;15.57;;;3.60;95.00;;;;;;4990418;28;20026;-74
2022/02/28 07:37:41;;;;;;;42.33;16.45;;;3.70;94.90;;;;;;4990876;28;20038;-73
2022/02/28 07:40:11;;;;;;;36.30;15.48;;;3.70;94.80;;;;;;4990598;28;20484;-73
2022/02/28 07:42:38;;;;;;;35.60;16.30;;;3.70;95.00;;;;;;4991124;28;20673;-73
2022/02/28 07:45:05;;;;;;;35.00;16.47;;;3.70;94.90;;;;;;4974214;28;20078;-73
2022/02/28 07:47:31;;;;;;;36.60;15.52;;;3.70;95.00;;;;;;4973526;28;20031;-72
2022/02/28 07:49:57;;;;;;;35.08;15.57;;;3.80;95.10;;;;;;4991120;28;20114;-72
2022/02/28 07:52:23;;;;;;;32.78;15.63;;;3.90;94.90;;;;;;4990728;28;20135;-74
2022/02/28 07:54:49;;;;;;;39.40;16.65;;;3.90;94.60;;;;;;4990627;28;20084;-73
2022/02/28 07:57:14;;;;;;;37.22;15.82;;;3.70;94.60;;;;;;4991202;28;20109;-72
2022/02/28 07:59:41;;;;;;;38.42;16.90;;;3.70;94.80;;;;;;4973631;28;20045;-72
2022/02/28 08:02:07;;;;;;;36.35;17.15;;;3.80;94.90;;;;;;4991372;28;20089;-72
2022/02/28 08:04:33;;;;;;;36.95;17.08;;;3.90;94.80;;;;;;4990801;28;20058;-72
2022/02/28 08:06:58;;;;;;;36.47;16.52;;;3.90;94.70;;;;;;4991062;28;20061;-74
2022/02/28 08:09:25;;;;;;;33.60;16.00;;;4.00;94.70;;;;;;4991273;28;20174;-71
2022/02/28 08:11:51;;;;;;;37.17;16.25;;;4.00;94.60;;;;;;4990836;28;20512;-72
2022/02/28 08:14:17;;;;;;;36.20;16.58;;;4.00;94.60;;;;;;4990863;28;20122;-72
2022/02/28 08:16:42;;;;;;;39.50;18.45;;;4.00;94.70;;;;;;4990501;28;20038;-72
2022/02/28 08:19:08;;;;;;;40.90;20.50;;;4.20;94.80;;;;;;4989456;28;20050;-73
2022/02/28 08:21:34;;;;;;;47.35;21.10;;;4.30;94.60;;;;;;4991280;28;20026;-73
2022/02/28 08:23:59;;;;;;;53.58;22.20;;;4.20;94.50;;;;;;4990646;28;20069;-71
2022/02/28 08:26:25;;;;;;;52.20;23.13;;;4.00;94.50;;;;;;4973185;28;20087;-72
2022/02/28 08:28:50;;;;;;;54.70;24.38;;;4.00;94.60;;;;;;4990441;28;20018;-74
2022/02/28 08:31:16;;;;;;;66.35;26.50;;;4.00;94.50;;;;;;4972852;28;20405;-73
2022/02/28 08:33:41;;;;;;;66.28;27.52;;;4.10;94.50;;;;;;4990399;28;20034;-74
2022/02/28 08:36:07;;;;;;;77.60;30.05;;;4.10;94.40;;;;;;4991998;28;20476;-75
2022/02/28 08:38:33;;;;;;;145.40;57.42;;;4.20;94.20;;;;;;4994127;28;20492;-74
2022/02/28 08:40:59;;;;;;;86.15;33.28;;;4.20;94.40;;;;;;4994104;28;20037;-74
2022/02/28 08:43:26;;;;;;;80.70;32.47;;;4.40;94.40;;;;;;4994203;28;20030;-75
2022/02/28 08:45:52;;;;;;;78.85;32.38;;;4.40;94.30;;;;;;4976718;28;20053;-73
2022/02/28 08:48:18;;;;;;;87.95;32.45;;;4.40;94.10;;;;;;4994591;28;20027;-71
2022/02/28 08:50:44;;;;;;;84.45;31.80;;;4.40;94.20;;;;;;4993943;28;20030;-73
2022/02/28 08:53:09;;;;;;;85.03;32.30;;;4.50;94.30;;;;;;4993959;28;20112;-73
2022/02/28 08:55:35;;;;;;;79.40;33.05;;;4.70;94.30;;;;;;4993941;28;20030;-72
2022/02/28 08:58:00;;;;;;;88.13;33.33;;;5.00;94.20;;;;;;4993813;28;20034;-73
2022/02/28 09:00:27;;;;;;;74.82;31.27;;;6.20;92.90;;;;;;4994294;28;20031;-72
2022/02/28 09:02:53;;;;;;;79.47;31.50;;;8.20;91.30;;;;;;4994626;28;20100;-76
2022/02/28 09:05:18;;;;;;;70.85;28.65;;;10.00;85.70;;;;;;4994246;28;20030;-73
2022/02/28 09:07:44;;;;;;;64.95;28.55;;;11.40;82.40;;;;;;4994908;28;20367;-73
2022/02/28 09:10:09;;;;;;;67.28;28.25;;;12.50;80.20;;;;;;4994047;28;20414;-71
2022/02/28 09:12:35;;;;;;;58.53;28.98;;;13.50;73.00;;;;;;4993874;28;20018;-69
2022/02/28 09:15:00;;;;;;;60.25;28.02;;;14.10;70.10;;;;;;4994411;28;20101;-70
2022/02/28 09:17:26;;;;;;;52.60;26.55;;;15.00;67.20;;;;;;4993491;28;20053;-72
2022/02/28 09:19:52;;;;;;;59.58;26.98;;;15.60;66.50;;;;;;4993645;28;20066;-72
2022/02/28 09:22:18;;;;;;;53.28;26.67;;;16.30;63.40;;;;;;4993672;28;20036;-74
2022/02/28 09:24:44;;;;;;;59.55;27.50;;;16.60;60.50;;;;;;4994022;28;20101;-72
2022/02/28 09:27:10;;;;;;;57.63;27.70;;;17.00;59.00;;;;;;4994182;28;20600;-74
2022/02/28 09:29:36;;;;;;;62.00;26.98;;;17.60;58.20;;;;;;4994335;28;20199;-72
2022/02/28 09:32:03;;;;;;;57.20;30.17;;;17.70;56.60;;;;;;4994195;28;20031;-73
2022/02/28 09:34:30;;;;;;;56.55;27.17;;;17.90;56.40;;;;;;4994145;28;20033;-72
2022/02/28 09:36:56;;;;;;;58.75;29.38;;;18.60;55.00;;;;;;4993470;28;20366;-74
2022/02/28 09:39:21;;;;;;;56.63;29.48;;;19.00;53.70;;;;;;4994241;28;20022;-73
2022/02/28 09:41:47;;;;;;;53.67;26.90;;;19.20;52.60;;;;;;4993499;28;20045;-72
2022/02/28 09:44:17;;;;;;;56.13;29.25;;;19.50;52.60;;;;;;4993569;28;20026;-75
2022/02/28 09:46:44;;;;;;;52.85;27.15;;;19.50;50.90;;;;;;4993668;28;20043;-72
2022/02/28 09:49:10;;;;;;;59.60;29.75;;;19.90;50.20;;;;;;4993269;28;20614;-73
2022/02/28 09:51:36;;;;;;;54.97;28.55;;;19.80;50.10;;;;;;4992483;28;20052;-71
2022/02/28 09:54:02;;;;;;;52.70;27.55;;;20.00;49.30;;;;;;4994007;28;20022;-73
2022/02/28 09:56:28;;;;;;;58.60;30.20;;;20.20;49.20;;;;;;4992990;28;20031;-73
2022/02/28 09:58:54;;;;;;;58.60;29.73;;;19.70;48.70;;;;;;4975548;28;20349;-71
2022/02/28 10:01:20;;;;;;;51.88;28.75;;;20.00;48.70;;;;;;4975686;28;20045;-73
2022/02/28 10:03:46;;;;;;;63.20;31.95;;;19.40;48.90;;;;;;4992823;28;20026;-78
2022/02/28 10:06:12;;;;;;;59.22;30.60;;;19.10;49.40;;;;;;4993125;28;20080;-72
2022/02/28 10:08:41;;;;;;;56.03;30.85;;;19.80;49.60;;;;;;4992834;28;20173;-72
2022/02/28 10:11:29;;;;;;;59.10;31.83;;;20.40;48.50;;;;;;4992888;28;20110;-72
2022/02/28 10:14:00;;;;;;;59.40;32.97;;;20.60;48.00;;;;;;4992621;28;20026;-73
2022/02/28 10:16:38;;;;;;;60.55;32.53;;;20.70;47.80;;;;;;4992440;28;20140;-73
2022/02/28 10:19:21;;;;;;;62.28;32.60;;;20.70;47.30;;;;;;4991499;28;20464;-72
2022/02/28 10:21:48;;;;;;;62.65;32.83;;;20.70;46.80;;;;;;4975138;28;20519;-74
2022/02/28 10:24:18;;;;;;;59.58;32.47;;;19.90;46.70;;;;;;4991666;28;20022;-73
2022/02/28 10:26:47;;;;;;;59.38;29.98;;;19.60;47.50;;;;;;4992623;28;20030;-73
2022/02/28 10:29:15;;;;;;;50.00;28.27;;;19.80;47.60;;;;;;4992662;28;20116;-72
2022/02/28 10:31:42;;;;;;;;;;;19.60;46.90;;;;;;4993241;28;20026;-72
2022/02/28 10:34:12;;;;;;;47.35;24.77;;;20.10;46.60;;;;;;4975511;28;19914;-73
2022/02/28 10:36:38;;;;;;;38.85;22.30;;;19.90;47.50;;;;;;4987699;28;20042;-70
2022/02/28 10:39:07;;;;;;;38.47;22.83;;;19.60;46.50;;;;;;4973177;28;20023;-72
2022/02/28 10:41:39;;;;;;;40.90;24.05;;;20.00;47.10;;;;;;4972738;28;20500;-72
2022/02/28 10:44:09;;;;;;;40.75;23.55;;;20.80;46.20;;;;;;4972638;28;20177;-74
2022/02/28 10:46:42;;;;;;;40.97;23.25;;;20.40;45.60;;;;;;4972635;28;20034;-74
2022/02/28 10:49:16;;;;;;;43.58;24.60;;;20.30;45.80;;;;;;4987645;28;20088;-73
2022/02/28 10:51:51;;;;;;;44.25;24.05;;;18.90;45.90;;;;;;4971506;28;20031;-73
2022/02/28 10:54:40;;;;;;;43.60;23.40;;;19.10;47.20;;;;;;4973039;28;20038;-74
2022/02/28 10:57:10;;;;;;;46.20;24.70;;;20.00;46.00;;;;;;4972701;28;20456;-73
2022/02/28 10:59:55;;;;;;;42.78;25.08;;;20.00;46.40;;;;;;4971970;28;20093;-72
2022/02/28 11:02:40;;;;;;;45.42;25.48;;;20.10;46.20;;;;;;4972285;28;20039;-70
2022/02/28 11:05:08;;;;;;;44.83;25.30;;;20.60;45.80;;;;;;4987478;28;20026;-70
2022/02/28 11:07:41;;;;;;;;;;;20.50;45.60;;;;;;4972821;28;20033;-74
2022/02/28 11:10:08;;;;;;;40.55;23.70;;;20.20;45.50;;;;;;4972524;28;19945;-72
2022/02/28 11:12:34;;;;;;;44.67;23.08;;;20.50;45.60;;;;;;4972686;28;20722;-74
2022/02/28 11:15:07;;;;;;;37.47;23.08;;;20.50;45.40;;;;;;4972045;28;20130;-72
2022/02/28 11:17:43;;;;;;;35.83;22.02;;;20.20;45.40;;;;;;4971973;28;20053;-72
2022/02/28 11:20:12;;;;;;;36.60;22.27;;;20.50;45.60;;;;;;4971872;28;20051;-71
2022/02/28 11:22:39;;;;;;;35.13;20.60;;;19.70;45.60;;;;;;4971969;28;20038;-70
2022/02/28 11:25:11;;;;;;;37.67;20.65;;;20.30;45.50;;;;;;4970924;28;20200;-71
2022/02/28 11:27:38;;;;;;;30.55;20.75;;;20.30;45.50;;;;;;4972055;28;20105;-71
2022/02/28 11:30:38;;;;;;;38.58;20.60;;;20.20;44.70;;;;;;4972507;28;20457;-70
2022/02/28 11:33:10;;;;;;;36.35;21.58;;;18.90;44.40;;;;;;4978631;28;20043;-71
2022/02/28 11:35:49;;;;;;;33.72;20.02;;;19.50;45.80;;;;;;4970944;28;20049;-73
2022/02/28 11:38:17;;;;;;;28.77;17.83;;;19.30;44.30;;;;;;4971961;28;20512;-74
2022/02/28 11:41:10;;;;;;;31.48;19.02;;;19.50;45.00;;;;;;4971719;28;20505;-74
2022/02/28 11:43:37;;;;;;;36.53;21.73;;;19.40;44.80;;;;;;4967914;28;20023;-73
2022/02/28 11:46:05;;;;;;;30.25;18.77;;;18.50;44.90;;;;;;4971761;28;20046;-74
2022/02/28 11:48:35;;;;;;;29.27;17.88;;;18.80;45.40;;;;;;4972452;28;20452;-71
2022/02/28 11:51:06;;;;;;;35.00;20.05;;;18.30;46.00;;;;;;4972048;28;20109;-74
2022/02/28 11:53:42;;;;;;;33.83;19.13;;;17.50;47.10;;;;;;4972162;28;20484;-71
2022/02/28 11:56:16;;;;;;;33.17;20.23;;;16.70;48.60;;;;;;4972054;28;20114;-71
2022/02/28 11:58:59;;;;;;;36.05;20.15;;;16.40;48.80;;;;;;4971772;28;20138;-72
2022/02/28 12:01:33;;;;;;;33.85;19.23;;;15.70;49.90;;;;;;4970901;28;20030;-71
2022/02/28 12:04:15;;;;;;;32.80;19.55;;;15.20;50.60;;;;;;4971709;28;20042;-71
2022/02/28 12:06:46;;;;;;;37.42;18.67;;;14.90;51.20;;;;;;4971729;28;20110;-74
2022/02/28 12:09:38;;;;;;;34.58;19.55;;;14.10;52.30;;;;;;4972783;28;20077;-74
2022/02/28 12:12:19;;;;;;;38.30;19.45;;;13.60;52.80;;;;;;4974618;28;20062;-73
2022/02/28 12:14:57;;;;;;;35.58;19.35;;;13.50;53.30;;;;;;4975663;28;20023;-73
2022/02/28 12:17:37;;;;;;;37.22;20.08;;;13.20;54.20;;;;;;4990622;28;20050;-73
2022/02/28 12:20:14;;;;;;;36.42;18.48;;;13.30;54.40;;;;;;4975232;28;20045;-73
2022/02/28 12:22:52;;;;;;;40.75;20.15;;;13.30;54.60;;;;;;4975446;28;20038;-72
2022/02/28 12:25:52;;;;;;;34.08;17.98;;;13.40;54.20;;;;;;4975802;28;20042;-73
2022/02/28 12:28:23;;;;;;;42.38;21.33;;;13.10;54.60;;;;;;4976189;28;20330;-75
2022/02/28 12:31:35;;;;;;;40.22;21.15;;;13.00;55.10;;;;;;4975052;28;20022;-73
2022/02/28 12:34:03;;;;;;;35.33;18.88;;;12.60;55.70;;;;;;4966051;28;20030;-72
2022/02/28 12:36:30;;;;;;;;;;;12.70;56.00;;;;;;4987966;28;20125;-71
2022/02/28 12:39:03;;;;;;;38.13;19.15;;;12.40;56.40;;;;;;4994640;28;19921;-70